• Join FlightAware (Why Join?)
  • Login
  • US Flag 
01:36PM EDT


 

Airport Tracker/Info


-or-


 

Live Flight TrackerFlight Track Log ✈ ASQ4252 ✈ 27-Jul-2013 ✈ KIAD - KRIC

Flight Track Log - Related Links

Times and Time Zones

All times are in EDT time to prevent confusion due to time zone crossing. See the ASQ4252 flight status page for this flight to view local times or setup timezone preferences in your user account.

Time Position Orientation Groundspeed Altitude Reporting Facility
EDT Latitude Longitude Course Direction KTS MPH feet Rate Location/Type
10:09PM 38.4455 -77.5431 185° South  Level FlightAware Approximate
10:10PM 38.3597 -77.6188 230° Southwest  Level FlightAware Approximate
10:11PM 38.2740 -77.7348 226° Southwest  Level FlightAware Approximate
10:12PM 38.1924 -77.8553 230° Southwest  Level FlightAware Approximate
10:13PM 38.1127 -77.9778 230° Southwest  Level FlightAware Approximate
10:14PM 38.0328 -78.0999 230° Southwest  Level FlightAware Approximate
10:15PM 37.9354 -78.1050 148° Southeast  Level FlightAware Approximate
10:16PM 37.8269 -78.0272 156° South  Level FlightAware Approximate
10:17PM 37.7181 -77.9514 142° Southeast  Level FlightAware Approximate
10:18PM 37.6086 -77.8812 146° Southeast  Level FlightAware Approximate
10:19PM 37.5167 -77.7948 90° East  Level FlightAware Approximate
10:20PM 37.5167 -77.6372 90° East  Level FlightAware Approximate
10:21PM 37.5000 -77.4828 90° East  Level FlightAware Approximate
10:22PM 37.5000 -77.3252 90° East  Level FlightAware Approximate
10:23PM 37.5000 -77.3167 90° East  Level FlightAware Approximate
10:24PM 37.5052 -77.3197 90° East  Level Estimated
10:25PM 37.5000 -77.3167 90° East  Level FlightAware Approximate
10:26PM 37.5052 -77.3197 90° East  Level Estimated
10:27PM 37.5000 -77.3167 90° East  Level FlightAware Approximate
10:28PM 37.5052 -77.3197 90° East  Level Estimated
10:29PM 37.5000 -77.3167 90° East  Level FlightAware Approximate